»·PEaware :: BAW341 EGCC-KLAX

BAW341 :: EGCC-KLAX

FLIGHT INFORMATION

Flight Status: Arrived
Operator:
British Airways
More flights by this operator :: More flights under this callsign
Pilot: Andrew N. (12823)
Aircraft: BOEING 767-300
(B763)
More flights by this aircraft type
Origin: EGCC Manchester
United Kingdom
Destination: KLAX Los Angeles Intl
United States
More flights between these airports :: More routes between these airports
Route: MLF J107 HEC RIIVR3
File this flight plan on PilotEdge
Remarks:
Altitude:
(Current/Filed)
36,000ft
Speed:
(Current/Filed)
0kts
Departed: 25-Dec-16 08:22 PM
Arrived: 26-Dec-16 09:20 AM
Distance/Time
Traveled:
4603nm/12:58
Distance/Time
To Go:
Arrived

Flight Plot

Page will automatically refresh every two minutes.

Flight plan parsing failed; only flown route is shown


Map Options




Map Legend


Flown Route
Filed Route
Departure Airport
Arrival Airport
Navaid (VOR, NDB)
Fix

Horizontal Profiles

Position Reports

Time Latitude Longitude Heading Altitude Ground
Speed
25-Dec-16 20:13 53.672216 -2.199334 37 5182ft 276kts
25-Dec-16 20:14 53.731357 -2.122491 19 5307ft 283kts
25-Dec-16 20:15 53.801338 -2.143812 331 8218ft 264kts
25-Dec-16 20:16 53.867884 -2.188150 328 10670ft 280kts
25-Dec-16 20:17 53.947763 -2.242770 329 12447ft 335kts
25-Dec-16 20:18 54.033340 -2.301567 328 15268ft 347kts
25-Dec-16 20:19 54.120189 -2.361581 327 17689ft 360kts
25-Dec-16 20:20 54.211599 -2.425044 326 19904ft 374kts
25-Dec-16 20:21 54.308115 -2.492380 325 21959ft 387kts
25-Dec-16 20:22 54.408443 -2.562736 325 23825ft 399kts
25-Dec-16 20:23 54.494401 -2.623314 324 25246ft 409kts
25-Dec-16 20:24 54.596682 -2.695790 323 26835ft 419kts
25-Dec-16 20:25 54.702540 -2.771234 323 28279ft 430kts
25-Dec-16 20:26 54.829490 -2.862247 323 29867ft 442kts
25-Dec-16 20:27 54.935052 -2.938430 323 31038ft 451kts
25-Dec-16 20:28 55.023469 -3.002545 324 31920ft 454kts
25-Dec-16 20:29 55.123070 -3.075110 324 31880ft 452kts
25-Dec-16 20:30 55.228389 -3.152291 324 31878ft 450kts
25-Dec-16 20:31 55.329777 -3.227043 324 31881ft 451kts
25-Dec-16 20:32 55.434666 -3.304800 324 31880ft 451kts
25-Dec-16 20:33 55.518009 -3.421398 295 31889ft 403kts
25-Dec-16 20:34 55.574381 -3.572644 292 31877ft 399kts
25-Dec-16 20:35 55.625174 -3.718629 291 31889ft 398kts
25-Dec-16 20:36 55.676627 -3.869089 291 32260ft 399kts
25-Dec-16 20:37 55.728709 -4.022543 290 33626ft 394kts
25-Dec-16 20:38 55.781085 -4.178007 290 34735ft 391kts
25-Dec-16 20:39 55.832543 -4.331712 290 35609ft 389kts
25-Dec-16 20:40 55.900890 -4.467111 317 35995ft 430kts
25-Dec-16 20:41 56.005594 -4.541012 326 35999ft 449kts
25-Dec-16 20:42 56.109902 -4.613335 325 35990ft 447kts
25-Dec-16 20:43 56.211806 -4.685143 324 36023ft 444kts
25-Dec-16 20:44 56.322331 -4.762485 326 36046ft 449kts
25-Dec-16 20:45 56.443779 -4.815032 338 36035ft 468kts
25-Dec-16 20:46 56.570220 -4.848675 326 36063ft 445kts
25-Dec-16 20:47 56.691609 -4.901098 340 36054ft 472kts
25-Dec-16 20:48 56.902147 -4.808214 29 36058ft 548kts
25-Dec-16 20:49 57.017241 -4.416173 88 36067ft 564kts
25-Dec-16 20:50 56.956789 -4.065557 142 36056ft 508kts
25-Dec-16 20:51 56.786844 -3.931700 200 36058ft 399kts
25-Dec-16 20:52 56.678617 -4.125439 261 36057ft 353kts
25-Dec-16 20:53 56.768585 -4.387591 310 36053ft 417kts
25-Dec-16 20:54 56.924970 -4.596557 310 36041ft 418kts
25-Dec-16 20:55 57.047493 -4.838433 274 36063ft 373kts
25-Dec-16 20:56 57.049408 -5.158903 266 36050ft 372kts
25-Dec-16 20:57 57.022361 -5.446625 256 35940ft 367kts
25-Dec-16 20:58 57.065361 -5.689529 307 35851ft 413kts
25-Dec-16 20:59 57.242993 -5.763406 4 35755ft 498kts
25-Dec-16 21:00 57.418819 -5.489403 62 35907ft 561kts
25-Dec-16 21:01 57.466308 -5.080932 81 35869ft 547kts
25-Dec-16 21:02 57.434100 -4.634727 144 35982ft 500kts
25-Dec-16 21:03 57.308926 -4.579460 212 36081ft 399kts
25-Dec-16 21:04 57.239425 -4.722077 239 36117ft 374kts
25-Dec-16 21:05 57.185845 -4.885956 243 35941ft 372kts
25-Dec-16 21:06 57.131374 -5.050113 241 35986ft 382kts
25-Dec-16 21:07 57.073980 -5.211495 240 36013ft 375kts
25-Dec-16 21:08 57.025442 -5.373930 251 36013ft 366kts
25-Dec-16 21:09 57.029324 -5.546596 285 35813ft 384kts
25-Dec-16 21:10 57.091515 -5.697870 305 36058ft 411kts
25-Dec-16 21:11 57.158211 -5.850787 301 35762ft 407kts
25-Dec-16 21:12 57.227500 -6.002318 301 35774ft 408kts
25-Dec-16 21:13 57.297318 -6.156976 301 35694ft 408kts
25-Dec-16 21:14 57.366466 -6.311277 301 35717ft 407kts
25-Dec-16 21:15 57.434984 -6.465190 301 35709ft 408kts
25-Dec-16 21:16 57.504713 -6.622857 301 35758ft 408kts
25-Dec-16 21:17 57.574631 -6.782006 300 35837ft 407kts
25-Dec-16 21:18 57.606843 -6.855683 300 35835ft 407kts
25-Dec-16 21:19 57.606843 -6.855683 300 35835ft 407kts
25-Dec-16 21:20 53.628267 -2.258088 37 5182ft 276kts
25-Dec-16 21:21 57.657793 -6.972685 300 35840ft 405kts
25-Dec-16 21:22 57.727297 -7.133267 300 35833ft 408kts
25-Dec-16 21:23 57.797054 -7.295481 301 35830ft 409kts
25-Dec-16 21:24 57.866320 -7.457677 301 35829ft 409kts
25-Dec-16 21:25 57.936751 -7.623757 301 35828ft 409kts
25-Dec-16 21:26 57.994721 -7.761323 300 35838ft 408kts
25-Dec-16 21:27 58.074992 -7.953140 300 35837ft 408kts
25-Dec-16 21:28 58.131836 -8.089920 300 35831ft 408kts
25-Dec-16 21:29 58.200052 -8.255115 300 35829ft 408kts
25-Dec-16 21:30 58.269863 -8.425372 300 35827ft 408kts
25-Dec-16 21:31 58.339027 -8.595263 300 35826ft 408kts
25-Dec-16 21:32 58.406931 -8.763255 299 35834ft 408kts
25-Dec-16 21:33 58.475668 -8.934538 299 35834ft 408kts
25-Dec-16 21:34 58.542710 -9.102810 300 35832ft 407kts
25-Dec-16 21:35 58.608929 -9.270155 300 35832ft 407kts
25-Dec-16 21:36 58.676599 -9.442413 300 35829ft 407kts
25-Dec-16 21:37 58.744162 -9.615671 300 35828ft 407kts
25-Dec-16 21:38 58.810324 -9.786564 299 35837ft 407kts
25-Dec-16 21:39 58.877099 -9.960306 299 35835ft 407kts
25-Dec-16 21:40 58.942706 -10.132338 300 35833ft 413kts
25-Dec-16 21:41 59.010332 -10.310914 301 35832ft 420kts
25-Dec-16 21:42 59.078188 -10.491410 301 35829ft 423kts
25-Dec-16 21:43 59.145100 -10.670780 301 35890ft 420kts
25-Dec-16 21:44 59.212226 -10.852136 301 35889ft 420kts
25-Dec-16 21:45 59.279785 -11.036084 301 35887ft 418kts
25-Dec-16 21:46 59.346613 -11.219440 301 35886ft 418kts
25-Dec-16 21:47 59.412269 -11.400997 301 35884ft 418kts
25-Dec-16 21:48 59.477417 -11.582546 301 35883ft 418kts
25-Dec-16 21:49 59.543442 -11.767983 301 35889ft 418kts
25-Dec-16 21:50 59.608497 -11.952132 301 35887ft 418kts
25-Dec-16 21:51 59.672170 -12.133786 301 35886ft 418kts
25-Dec-16 21:52 59.737148 -12.320621 300 35885ft 418kts
25-Dec-16 21:53 59.800045 -12.502902 300 35879ft 418kts
25-Dec-16 21:54 59.858939 -12.674878 300 35342ft 419kts
25-Dec-16 21:55 59.914854 -12.839329 300 35139ft 419kts
25-Dec-16 21:56 59.970853 -13.005195 300 35132ft 419kts
25-Dec-16 21:57 60.027331 -13.173694 300 35130ft 415kts
25-Dec-16 21:58 60.082898 -13.340656 300 35128ft 415kts
25-Dec-16 21:59 60.138509 -13.508948 300 35127ft 415kts
25-Dec-16 22:00 60.193146 -13.675496 299 35131ft 414kts
25-Dec-16 22:01 60.248372 -13.845060 299 35132ft 414kts
25-Dec-16 22:02 60.302435 -14.012254 299 35131ft 414kts
25-Dec-16 22:03 60.357361 -14.183358 299 35129ft 414kts
25-Dec-16 22:04 60.411362 -14.352816 299 35127ft 415kts
25-Dec-16 22:05 60.465190 -14.522983 299 35127ft 415kts
25-Dec-16 22:06 60.518962 -14.694234 298 35134ft 414kts
25-Dec-16 22:07 60.572014 -14.864429 298 35131ft 414kts
25-Dec-16 22:08 60.625060 -15.035858 298 35130ft 410kts
25-Dec-16 22:09 60.677759 -15.207462 299 35128ft 407kts
25-Dec-16 22:10 60.729961 -15.378706 299 35129ft 408kts
25-Dec-16 22:11 60.781328 -15.548464 299 35125ft 407kts
25-Dec-16 22:12 60.832903 -15.720180 298 35134ft 407kts
25-Dec-16 22:13 60.884372 -15.892822 298 35130ft 408kts
25-Dec-16 22:14 60.935375 -16.065196 298 35127ft 408kts
25-Dec-16 22:15 60.987102 -16.241363 298 35127ft 408kts
25-Dec-16 22:16 61.037751 -16.415179 298 35128ft 407kts
25-Dec-16 22:17 61.089437 -16.593935 298 35129ft 407kts
25-Dec-16 22:18 61.141265 -16.774582 297 35238ft 407kts
25-Dec-16 22:19 61.194665 -16.962197 297 35267ft 402kts
25-Dec-16 22:20 61.247101 -17.148009 296 35274ft 405kts
25-Dec-16 22:21 61.289155 -17.298106 297 35264ft 405kts
25-Dec-16 22:22 61.332870 -17.455142 297 35378ft 370kts
25-Dec-16 22:23 61.378493 -17.620327 297 35319ft 378kts
25-Dec-16 22:24 61.423503 -17.784363 296 35301ft 368kts
25-Dec-16 22:25 61.468621 -17.950114 297 35329ft 374kts
25-Dec-16 22:26 61.513473 -18.116054 297 35321ft 379kts
25-Dec-16 22:27 61.559221 -18.286560 296 35318ft 379kts
25-Dec-16 22:28 61.604423 -18.456314 297 35316ft 379kts
25-Dec-16 22:29 61.650015 -18.628865 296 35321ft 380kts
25-Dec-16 22:30 61.694183 -18.797315 296 35334ft 379kts
25-Dec-16 22:31 61.740422 -18.975009 296 35343ft 379kts
25-Dec-16 22:32 61.786589 -19.153813 295 35345ft 377kts
25-Dec-16 22:33 61.824657 -19.302417 295 35343ft 376kts
25-Dec-16 22:34 61.877023 -19.508457 294 35338ft 376kts
25-Dec-16 22:35 61.914003 -19.655123 294 35338ft 376kts
25-Dec-16 22:36 61.958366 -19.832321 294 35347ft 376kts
25-Dec-16 22:37 62.002590 -20.010159 294 35344ft 377kts
25-Dec-16 22:38 62.047532 -20.189754 294 35342ft 377kts
25-Dec-16 22:39 62.091970 -20.368700 294 35340ft 377kts
25-Dec-16 22:40 62.116108 -20.466512 294 35342ft 377kts
25-Dec-16 22:41 62.160252 -20.646510 294 35340ft 377kts
25-Dec-16 22:42 62.204018 -20.826481 294 35350ft 377kts
25-Dec-16 22:43 62.248003 -21.008793 293 35348ft 376kts
25-Dec-16 22:44 62.290887 -21.188066 292 35346ft 376kts
25-Dec-16 22:45 62.334991 -21.374009 293 35343ft 375kts
25-Dec-16 22:46 62.377969 -21.556731 292 35337ft 375kts
25-Dec-16 22:47 62.419935 -21.736670 292 35350ft 375kts
25-Dec-16 22:48 62.462572 -21.921001 291 35351ft 375kts
25-Dec-16 22:49 62.505656 -22.108903 291 35371ft 375kts
25-Dec-16 22:50 62.547683 -22.293809 292 35372ft 375kts
25-Dec-16 22:51 62.589875 -22.481070 291 35364ft 375kts
25-Dec-16 22:52 62.630043 -22.660899 291 35370ft 373kts
25-Dec-16 22:53 62.671676 -22.848822 291 35377ft 373kts
25-Dec-16 22:54 62.713144 -23.037647 290 35375ft 373kts
25-Dec-16 22:55 62.753979 -23.225385 290 35372ft 372kts
25-Dec-16 22:56 62.794214 -23.411957 290 35370ft 372kts
25-Dec-16 22:57 62.834037 -23.598277 290 35366ft 372kts
25-Dec-16 22:58 62.874407 -23.788882 289 35379ft 372kts
25-Dec-16 22:59 62.904938 -23.934177 290 35376ft 372kts
25-Dec-16 23:00 62.942920 -24.116347 290 35455ft 371kts
25-Dec-16 23:01 62.981224 -24.301727 289 35451ft 371kts
25-Dec-16 23:02 63.020003 -24.491123 289 35447ft 371kts
25-Dec-16 23:03 63.057247 -24.674642 289 35454ft 372kts
25-Dec-16 23:04 63.094479 -24.859766 289 35457ft 371kts
25-Dec-16 23:05 63.130350 -25.039654 288 35454ft 371kts
25-Dec-16 23:06 63.167641 -25.228405 287 35448ft 371kts
25-Dec-16 23:07 63.203794 -25.413254 287 35453ft 374kts
25-Dec-16 23:08 63.239876 -25.599290 287 35445ft 371kts
25-Dec-16 23:09 63.276310 -25.788980 287 35460ft 371kts
25-Dec-16 23:10 63.311701 -25.974885 286 35451ft 372kts
25-Dec-16 23:11 63.347199 -26.163177 287 35449ft 371kts
25-Dec-16 23:12 63.382323 -26.351195 287 35451ft 371kts
25-Dec-16 23:13 63.413896 -26.521802 286 35446ft 371kts
25-Dec-16 23:14 63.448149 -26.708574 285 35459ft 371kts
25-Dec-16 23:15 63.481137 -26.890103 286 35455ft 370kts
25-Dec-16 23:16 63.514434 -27.074933 284 35453ft 372kts
25-Dec-16 23:17 63.548465 -27.265914 284 35455ft 374kts
25-Dec-16 23:18 63.574956 -27.417515 292 35687ft 363kts
25-Dec-16 23:19 63.611540 -27.624906 292 35077ft 368kts
25-Dec-16 23:20 63.650333 -27.848932 291 34019ft 395kts
25-Dec-16 23:21 63.690958 -28.086469 291 34023ft 418kts
25-Dec-16 23:22 63.733404 -28.337886 291 34023ft 444kts
25-Dec-16 23:23 63.778273 -28.607352 291 34022ft 472kts
25-Dec-16 23:24 63.823565 -28.883362 290 34001ft 477kts
25-Dec-16 23:25 63.869184 -29.165585 290 34000ft 477kts
25-Dec-16 23:26 63.914162 -29.448165 290 34000ft 477kts
25-Dec-16 23:27 63.958662 -29.732121 289 34000ft 477kts
25-Dec-16 23:28 64.001630 -30.013715 287 33999ft 477kts
25-Dec-16 23:29 64.033999 -30.247162 287 34878ft 472kts
25-Dec-16 23:30 64.058012 -30.419509 279 36270ft 387kts
25-Dec-16 23:31 64.083221 -30.610093 280 36813ft 378kts
25-Dec-16 23:32 64.108600 -30.801642 279 36921ft 377kts
25-Dec-16 23:33 64.135260 -31.004743 278 36931ft 377kts
25-Dec-16 23:34 64.162113 -31.211642 277 36851ft 372kts
25-Dec-16 23:35 64.188410 -31.416749 277 35090ft 367kts
25-Dec-16 23:36 64.213776 -31.618085 277 35201ft 372kts
25-Dec-16 23:37 64.239940 -31.828003 276 35276ft 386kts
25-Dec-16 23:38 64.265965 -32.039113 276 35459ft 389kts
25-Dec-16 23:39 64.292410 -32.256935 276 35450ft 390kts
25-Dec-16 23:40 64.318187 -32.472315 276 35449ft 389kts
25-Dec-16 23:41 64.343441 -32.686290 276 35452ft 390kts
25-Dec-16 23:42 64.364062 -32.863357 275 35450ft 389kts
25-Dec-16 23:43 64.392805 -33.113855 275 35448ft 396kts
25-Dec-16 23:44 64.417959 -33.336486 275 35449ft 402kts
25-Dec-16 23:45 64.437549 -33.512119 275 35449ft 399kts
25-Dec-16 23:46 64.461921 -33.733853 275 35456ft 400kts
25-Dec-16 23:47 64.486237 -33.958586 275 35452ft 399kts
25-Dec-16 23:48 64.510385 -34.185307 275 35611ft 398kts
25-Dec-16 23:49 64.536158 -34.431530 274 36164ft 395kts
25-Dec-16 23:50 64.561659 -34.679557 274 36696ft 393kts
25-Dec-16 23:51 64.577406 -34.835067 274 36969ft 394kts
25-Dec-16 23:52 64.595129 -35.012453 274 36967ft 401kts
25-Dec-16 23:53 64.620231 -35.267328 274 37131ft 405kts
25-Dec-16 23:54 64.645007 -35.523958 274 37362ft 407kts
25-Dec-16 23:55 64.669260 -35.780274 273 37596ft 407kts
25-Dec-16 23:56 64.693165 -36.038085 273 37796ft 406kts
25-Dec-16 23:57 64.716608 -36.296185 273 37916ft 405kts
25-Dec-16 23:58 64.739484 -36.553427 273 37904ft 404kts
25-Dec-16 23:59 64.761891 -36.810879 272 37924ft 403kts
26-Dec-16 00:00 64.783739 -37.067507 273 36858ft 408kts
26-Dec-16 00:01 64.805720 -37.331622 273 36050ft 418kts
26-Dec-16 00:02 64.827776 -37.602541 273 36038ft 423kts
26-Dec-16 00:03 64.849311 -37.873659 272 36041ft 423kts
26-Dec-16 00:04 64.868821 -38.125317 272 36040ft 422kts
26-Dec-16 00:05 64.889388 -38.397164 272 36038ft 422kts
26-Dec-16 00:06 64.909238 -38.666375 272 36039ft 423kts
26-Dec-16 00:07 64.928746 -38.938105 272 36042ft 422kts
26-Dec-16 00:08 64.947880 -39.212059 272 36041ft 426kts
26-Dec-16 00:09 64.966679 -39.488603 272 36038ft 426kts
26-Dec-16 00:10 64.984911 -39.764820 271 36043ft 425kts
26-Dec-16 00:11 65.001617 -40.040867 267 36041ft 422kts
26-Dec-16 00:12 65.010314 -40.317233 268 36040ft 422kts
26-Dec-16 00:13 65.018737 -40.594493 268 36038ft 422kts
26-Dec-16 00:14 65.026634 -40.871157 267 36043ft 422kts
26-Dec-16 00:15 65.034081 -41.150353 268 36041ft 426kts
26-Dec-16 00:16 65.041012 -41.429477 268 36040ft 426kts
26-Dec-16 00:17 65.047441 -41.709788 267 36044ft 425kts
26-Dec-16 00:18 65.053327 -41.989335 267 36042ft 425kts
26-Dec-16 00:19 65.058690 -42.269086 267 36041ft 426kts
26-Dec-16 00:20 65.063533 -42.549060 267 36040ft 426kts
26-Dec-16 00:21 65.067859 -42.829353 266 36043ft 425kts
26-Dec-16 00:22 65.071637 -43.109296 266 36042ft 427kts
26-Dec-16 00:23 65.074920 -43.389573 267 36039ft 427kts
26-Dec-16 00:24 65.077678 -43.670178 266 36040ft 427kts
26-Dec-16 00:25 65.079911 -43.951638 266 36041ft 427kts
26-Dec-16 00:26 65.081610 -44.232181 266 36040ft 427kts
26-Dec-16 00:27 65.082787 -44.513973 266 36039ft 427kts
26-Dec-16 00:28 65.083435 -44.794257 265 36041ft 426kts
26-Dec-16 00:29 65.083538 -45.076372 266 36040ft 429kts
26-Dec-16 00:30 65.083139 -45.360478 266 36038ft 430kts
26-Dec-16 00:31 65.082194 -45.643217 266 36037ft 430kts
26-Dec-16 00:32 65.080712 -45.926825 265 36040ft 430kts
26-Dec-16 00:33 65.078690 -46.210391 265 36039ft 430kts
26-Dec-16 00:34 65.076136 -46.493420 265 36038ft 430kts
26-Dec-16 00:35 65.073051 -46.776403 265 36040ft 430kts
26-Dec-16 00:36 65.069391 -47.060784 266 36038ft 433kts
26-Dec-16 00:37 65.065225 -47.345161 266 36037ft 433kts
26-Dec-16 00:38 65.060511 -47.629033 266 36036ft 433kts
26-Dec-16 00:39 65.055261 -47.912877 265 36038ft 432kts
26-Dec-16 00:40 65.049457 -48.197203 265 36037ft 432kts
26-Dec-16 00:41 65.043103 -48.481860 265 36036ft 432kts
26-Dec-16 00:42 65.036349 -48.760817 264 36039ft 432kts
26-Dec-16 00:43 65.028934 -49.044709 264 36038ft 432kts
26-Dec-16 00:44 65.021072 -49.325337 265 35970ft 432kts
26-Dec-16 00:45 65.012687 -49.605973 265 35836ft 432kts
26-Dec-16 00:46 65.003909 -49.882268 264 35761ft 432kts
26-Dec-16 00:47 64.995030 -50.157136 264 35733ft 431kts
26-Dec-16 00:48 64.985841 -50.434277 264 35731ft 431kts
26-Dec-16 00:49 64.976156 -50.710740 263 35734ft 431kts
26-Dec-16 00:50 64.965872 -50.989225 264 35732ft 432kts
26-Dec-16 00:51 64.955163 -51.265288 264 35731ft 433kts
26-Dec-16 00:52 64.945945 -51.492849 264 35731ft 433kts
26-Dec-16 00:53 64.934875 -51.755175 263 35706ft 433kts
26-Dec-16 00:54 64.923625 -52.011203 263 35705ft 434kts
26-Dec-16 00:55 64.911548 -52.275265 263 35703ft 434kts
26-Dec-16 00:56 64.899426 -52.530353 264 35702ft 434kts
26-Dec-16 00:57 64.886862 -52.785338 263 35706ft 434kts
26-Dec-16 00:58 64.873478 -53.047219 263 35703ft 434kts
26-Dec-16 00:59 64.860021 -53.302091 263 35703ft 434kts
26-Dec-16 01:00 64.846050 -53.557977 263 35704ft 434kts
26-Dec-16 01:01 64.831780 -53.811047 263 35706ft 434kts
26-Dec-16 01:02 64.817119 -54.063245 263 35703ft 434kts
26-Dec-16 01:03 64.801427 -54.325102 263 35701ft 434kts
26-Dec-16 01:04 64.785687 -54.580019 263 35703ft 434kts
26-Dec-16 01:05 64.769911 -54.828467 262 35705ft 434kts
26-Dec-16 01:06 64.753210 -55.084138 262 35702ft 432kts
26-Dec-16 01:07 64.736171 -55.338247 263 35704ft 431kts
26-Dec-16 01:08 64.719061 -55.586765 263 35702ft 431kts
26-Dec-16 01:09 64.701117 -55.840791 262 35706ft 432kts
26-Dec-16 01:10 64.682843 -56.093120 262 35704ft 431kts
26-Dec-16 01:11 64.664337 -56.342353 262 35704ft 432kts
26-Dec-16 01:12 64.645120 -56.595107 262 35702ft 431kts
26-Dec-16 01:13 64.625085 -56.852405 261 35704ft 431kts
26-Dec-16 01:14 64.605357 -57.099921 262 35704ft 434kts
26-Dec-16 01:15 64.584389 -57.357180 262 35703ft 434kts
26-Dec-16 01:16 64.563331 -57.609790 262 35702ft 434kts
26-Dec-16 01:17 64.542074 -57.859278 261 35704ft 434kts
26-Dec-16 01:18 64.519527 -58.118277 261 35713ft 434kts
26-Dec-16 01:19 64.497380 -58.367317 261 36140ft 434kts
26-Dec-16 01:20 64.474235 -58.622273 261 36143ft 434kts
26-Dec-16 01:21 64.451107 -58.871846 260 36146ft 434kts
26-Dec-16 01:22 64.427363 -59.123020 261 36146ft 436kts
26-Dec-16 01:23 64.403545 -59.370285 261 36145ft 436kts
26-Dec-16 01:24 64.378575 -59.624444 261 36144ft 436kts
26-Dec-16 01:25 64.353274 -59.877070 260 36146ft 436kts
26-Dec-16 01:26 64.327734 -60.127334 260 36146ft 436kts
26-Dec-16 01:27 64.301546 -60.379248 260 36145ft 436kts
26-Dec-16 01:28 64.275029 -60.629721 260 36144ft 436kts
26-Dec-16 01:29 64.248045 -60.880057 259 36147ft 437kts
26-Dec-16 01:30 64.220711 -61.129090 260 36146ft 435kts
26-Dec-16 01:31 64.192977 -61.377638 260 36147ft 434kts
26-Dec-16 01:32 64.164999 -61.624077 260 36145ft 434kts
26-Dec-16 01:33 64.136298 -61.872619 259 36148ft 434kts
26-Dec-16 01:34 64.107463 -62.118220 259 36148ft 435kts
26-Dec-16 01:35 64.078028 -62.364872 259 36147ft 435kts
26-Dec-16 01:36 64.048340 -62.609653 259 36146ft 435kts
26-Dec-16 01:37 64.018094 -62.855079 258 36149ft 435kts
26-Dec-16 01:38 63.986654 -63.095954 257 36146ft 435kts
26-Dec-16 01:39 63.953035 -63.338672 257 36148ft 436kts
26-Dec-16 01:40 63.918855 -63.581076 257 36147ft 436kts
26-Dec-16 01:41 63.884205 -63.823230 256 36142ft 436kts
26-Dec-16 01:42 63.849546 -64.062093 256 36142ft 436kts
26-Dec-16 01:43 63.813921 -64.304229 256 36142ft 436kts
26-Dec-16 01:44 63.778447 -64.542054 256 36141ft 436kts
26-Dec-16 01:45 63.743112 -64.775809 255 36200ft 437kts
26-Dec-16 01:46 63.708376 -65.002622 256 36216ft 437kts
26-Dec-16 01:47 63.672471 -65.234113 256 36216ft 438kts
26-Dec-16 01:48 63.636212 -65.464893 256 36215ft 438kts
26-Dec-16 01:49 63.600565 -65.688942 255 36217ft 438kts
26-Dec-16 01:50 63.563727 -65.917662 255 36218ft 438kts
26-Dec-16 01:51 63.527066 -66.142487 255 36218ft 438kts
26-Dec-16 01:52 63.490059 -66.366690 255 36217ft 438kts
26-Dec-16 01:53 63.453235 -66.587149 255 36216ft 438kts
26-Dec-16 01:54 63.415343 -66.811320 254 36228ft 439kts
26-Dec-16 01:55 63.375949 -67.041582 254 36229ft 438kts
26-Dec-16 01:56 63.335736 -67.273790 254 36227ft 435kts
26-Dec-16 01:57 63.296515 -67.497638 254 36227ft 435kts
26-Dec-16 01:58 63.256470 -67.723496 253 36232ft 436kts
26-Dec-16 01:58 63.222949 -67.910551 253 36231ft 436kts
26-Dec-16 02:00 63.182488 -68.133965 253 36230ft 436kts
26-Dec-16 02:01 63.142460 -68.352500 253 36229ft 436kts
26-Dec-16 02:02 63.100602 -68.578463 253 36228ft 436kts
26-Dec-16 02:03 63.060089 -68.794713 252 36232ft 437kts
26-Dec-16 02:04 63.018460 -69.014460 253 36231ft 434kts
26-Dec-16 02:05 62.976298 -69.234660 253 36231ft 432kts
26-Dec-16 02:06 62.934058 -69.452855 253 36230ft 432kts
26-Dec-16 02:07 62.891612 -69.669730 252 36223ft 433kts
26-Dec-16 02:08 62.849443 -69.883822 254 36224ft 432kts
26-Dec-16 02:09 62.812930 -70.102283 255 36224ft 430kts
26-Dec-16 02:10 62.774325 -70.330120 255 36224ft 430kts
26-Dec-16 02:11 62.736965 -70.547877 255 36223ft 430kts
26-Dec-16 02:12 62.698465 -70.769677 254 36228ft 431kts
26-Dec-16 02:13 62.660422 -70.986299 254 36226ft 426kts
26-Dec-16 02:14 62.622562 -71.199526 254 36227ft 425kts
26-Dec-16 02:15 62.584388 -71.412133 254 36225ft 425kts
26-Dec-16 02:16 62.545816 -71.624606 254 36224ft 425kts
26-Dec-16 02:17 62.506055 -71.841224 253 36228ft 426kts
26-Dec-16 02:18 62.466310 -72.055398 253 36228ft 426kts
26-Dec-16 02:19 62.426800 -72.266013 253 36227ft 426kts
26-Dec-16 02:20 62.387272 -72.474503 253 36226ft 426kts
26-Dec-16 02:21 62.346086 -72.689426 253 36256ft 427kts
26-Dec-16 02:22 62.303650 -72.908489 253 36266ft 427kts
26-Dec-16 02:23 62.261200 -73.125232 253 36265ft 424kts
26-Dec-16 02:24 62.219470 -73.336103 252 36264ft 421kts
26-Dec-16 02:25 62.176816 -73.549372 252 36263ft 421kts
26-Dec-16 02:26 62.133401 -73.764170 252 36269ft 422kts
26-Dec-16 02:27 62.089987 -73.976729 252 36267ft 422kts
26-Dec-16 02:28 62.046013 -74.189817 252 36266ft 422kts
26-Dec-16 02:29 62.001953 -74.401136 252 36265ft 423kts
26-Dec-16 02:30 61.957554 -74.611928 252 36264ft 423kts
26-Dec-16 02:31 61.912509 -74.823600 251 36270ft 423kts
26-Dec-16 02:32 61.867384 -75.033528 251 36324ft 421kts
26-Dec-16 02:33 61.822097 -75.242139 251 36386ft 419kts
26-Dec-16 02:34 61.776658 -75.449376 251 36446ft 420kts
26-Dec-16 02:35 61.730716 -75.656857 250 36477ft 420kts
26-Dec-16 02:36 61.684437 -75.863839 250 36483ft 420kts
26-Dec-16 02:37 61.638087 -76.069135 250 36483ft 421kts
26-Dec-16 02:38 61.591119 -76.275176 250 36481ft 421kts
26-Dec-16 02:39 61.545151 -76.474921 250 36478ft 419kts
26-Dec-16 02:40 61.497766 -76.678903 249 36483ft 420kts
26-Dec-16 02:41 61.450095 -76.882182 249 36485ft 418kts
26-Dec-16 02:42 61.402340 -77.083922 249 36483ft 414kts
26-Dec-16 02:43 61.354721 -77.283266 249 36482ft 414kts
26-Dec-16 02:44 61.306984 -77.481273 249 36481ft 415kts
26-Dec-16 02:45 61.258447 -77.680764 248 36485ft 416kts
26-Dec-16 02:46 61.209940 -77.878341 248 36487ft 416kts
26-Dec-16 02:47 61.160766 -78.076835 248 36485ft 416kts
26-Dec-16 02:48 61.111267 -78.274852 248 36484ft 416kts
26-Dec-16 02:49 61.061748 -78.471191 248 36483ft 416kts
26-Dec-16 02:50 61.012872 -78.663280 247 36483ft 416kts
26-Dec-16 02:51 60.962466 -78.859647 247 36488ft 417kts
26-Dec-16 02:52 60.911768 -79.055416 248 36487ft 415kts
26-Dec-16 02:53 60.865904 -79.231054 248 36480ft 412kts
26-Dec-16 02:54 60.816494 -79.418774 247 36466ft 410kts
26-Dec-16 02:55 60.765654 -79.610278 247 36468ft 411kts
26-Dec-16 02:56 60.714371 -79.801799 247 36474ft 412kts
26-Dec-16 02:57 60.661907 -79.991874 243 36470ft 415kts
26-Dec-16 02:58 60.601089 -80.173894 242 36492ft 417kts
26-Dec-16 02:59 60.537119 -80.359969 241 36531ft 417kts
26-Dec-16 03:00 60.470906 -80.550454 242 36569ft 417kts
26-Dec-16 03:01 60.403530 -80.742642 241 36579ft 418kts
26-Dec-16 03:02 60.335982 -80.933727 241 36577ft 418kts
26-Dec-16 03:03 60.268775 -81.122294 241 36575ft 415kts
26-Dec-16 03:04 60.201178 -81.310470 241 36574ft 415kts
26-Dec-16 03:05 60.133238 -81.498064 241 36573ft 415kts
26-Dec-16 03:06 60.065205 -81.684415 240 36579ft 416kts
26-Dec-16 03:07 59.996777 -81.870350 240 36580ft 416kts
26-Dec-16 03:08 59.928485 -82.054463 240 36578ft 417kts
26-Dec-16 03:09 59.860596 -82.236067 240 36547ft 414kts
26-Dec-16 03:10 59.805093 -82.383494 240 36531ft 414kts
26-Dec-16 03:11 59.738913 -82.558063 240 36335ft 414kts
26-Dec-16 03:12 59.671483 -82.734620 239 36314ft 415kts
26-Dec-16 03:13 59.604360 -82.909033 239 36310ft 414kts
26-Dec-16 03:14 59.537906 -83.080455 239 36309ft 412kts
26-Dec-16 03:15 59.471855 -83.249617 239 36308ft 412kts
26-Dec-16 03:16 59.405964 -83.417150 239 36306ft 413kts
26-Dec-16 03:17 59.339916 -83.583889 239 36305ft 413kts
26-Dec-16 03:18 59.272545 -83.752752 239 36313ft 414kts
26-Dec-16 03:19 59.203104 -83.925538 239 36440ft 414kts
26-Dec-16 03:20 59.132051 -84.101028 239 36547ft 414kts
26-Dec-16 03:21 59.060440 -84.276581 239 36547ft 414kts
26-Dec-16 03:22 58.989447 -84.449156 240 36542ft 401kts
26-Dec-16 03:23 58.921342 -84.613625 241 36549ft 381kts
26-Dec-16 03:24 58.856356 -84.769579 243 36539ft 364kts
26-Dec-16 03:25 58.793472 -84.919644 243 36550ft 359kts
26-Dec-16 03:26 58.730444 -85.068977 241 36551ft 359kts
26-Dec-16 03:27 58.667604 -85.216918 240 36547ft 355kts
26-Dec-16 03:28 58.605323 -85.362559 241 36535ft 354kts
26-Dec-16 03:29 58.542764 -85.507992 242 36548ft 354kts
26-Dec-16 03:30 58.480120 -85.652701 240 36534ft 353kts
26-Dec-16 03:31 58.417056 -85.797547 240 36558ft 356kts
26-Dec-16 03:32 58.353901 -85.941643 240 36553ft 355kts
26-Dec-16 03:33 58.290526 -86.085363 240 36541ft 354kts
26-Dec-16 03:34 58.227142 -86.228203 240 36539ft 353kts
26-Dec-16 03:35 58.163850 -86.370030 242 36543ft 354kts
26-Dec-16 03:36 58.100117 -86.512007 241 36540ft 355kts
26-Dec-16 03:37 58.036026 -86.653870 240 36538ft 354kts
26-Dec-16 03:38 57.971834 -86.795131 240 36567ft 355kts
26-Dec-16 03:39 57.907051 -86.936787 240 36552ft 358kts
26-Dec-16 03:40 57.844183 -87.073456 239 36537ft 353kts
26-Dec-16 03:41 57.779996 -87.212197 238 36555ft 350kts
26-Dec-16 03:42 57.715944 -87.349803 240 36541ft 350kts
26-Dec-16 03:43 57.651805 -87.486838 239 36540ft 350kts
26-Dec-16 03:44 57.587310 -87.623772 239 36538ft 352kts
26-Dec-16 03:45 57.522503 -87.760606 238 36553ft 354kts
26-Dec-16 03:46 57.457342 -87.897387 238 36552ft 353kts
26-Dec-16 03:47 57.392325 -88.033044 238 36550ft 352kts
26-Dec-16 03:48 57.326834 -88.168931 238 36552ft 353kts
26-Dec-16 03:49 57.261319 -88.304048 239 36534ft 354kts
26-Dec-16 03:50 57.195331 -88.439396 238 36541ft 355kts
26-Dec-16 03:51 57.129301 -88.574072 238 36539ft 354kts
26-Dec-16 03:52 57.064894 -88.704663 237 36565ft 354kts
26-Dec-16 03:53 56.998715 -88.838093 235 36546ft 354kts
26-Dec-16 03:54 56.932346 -88.971158 234 36548ft 355kts
26-Dec-16 03:55 56.865467 -89.104525 232 36517ft 366kts
26-Dec-16 03:56 56.795194 -89.243700 232 36507ft 377kts
26-Dec-16 03:57 56.724039 -89.383831 232 36498ft 377kts
26-Dec-16 03:58 56.652511 -89.523870 232 36500ft 377kts
26-Dec-16 03:59 56.581190 -89.662699 231 36501ft 378kts
26-Dec-16 04:00 56.509562 -89.801298 231 36505ft 379kts
26-Dec-16 04:01 56.437590 -89.939735 231 36498ft 377kts
26-Dec-16 04:02 56.365435 -90.077748 231 36502ft 379kts
26-Dec-16 04:03 56.293221 -90.215118 231 36498ft 378kts
26-Dec-16 04:04 56.220722 -90.352215 231 36494ft 378kts
26-Dec-16 04:05 56.148792 -90.487443 231 36494ft 379kts
26-Dec-16 04:06 56.079633 -90.616711 231 36280ft 379kts
26-Dec-16 04:07 56.015120 -90.736649 230 36078ft 378kts
26-Dec-16 04:08 55.949967 -90.857169 231 36066ft 379kts
26-Dec-16 04:09 55.885034 -90.976673 231 36076ft 379kts
26-Dec-16 04:10 55.820888 -91.094153 230 36072ft 378kts
26-Dec-16 04:11 55.755367 -91.213496 229 36070ft 380kts
26-Dec-16 04:12 55.690068 -91.331818 229 36067ft 380kts
26-Dec-16 04:13 55.624328 -91.450340 229 36066ft 380kts
26-Dec-16 04:14 55.557783 -91.569734 229 36067ft 380kts
26-Dec-16 04:15 55.491902 -91.687307 228 36077ft 380kts
26-Dec-16 04:16 55.425922 -91.804487 228 36072ft 381kts
26-Dec-16 04:17 55.359745 -91.921409 228 36073ft 381kts
26-Dec-16 04:18 55.292457 -92.039706 229 36072ft 381kts
26-Dec-16 04:18 55.237495 -92.135885 228 36070ft 381kts
26-Dec-16 04:19 55.170562 -92.252475 229 36070ft 381kts
26-Dec-16 04:21 55.103096 -92.369403 228 36065ft 381kts
26-Dec-16 04:22 55.035719 -92.485595 228 36058ft 382kts
26-Dec-16 04:23 54.968812 -92.600491 226 36060ft 390kts
26-Dec-16 04:24 54.898866 -92.719884 224 36068ft 403kts
26-Dec-16 04:25 54.830997 -92.835125 223 36233ft 410kts
26-Dec-16 04:26 54.779931 -92.921460 223 37024ft 406kts
26-Dec-16 04:27 54.742394 -92.984737 223 37287ft 409kts
26-Dec-16 04:28 54.666942 -93.111402 223 37682ft 415kts
26-Dec-16 04:29 54.589446 -93.240804 223 38146ft 416kts
26-Dec-16 04:30 54.511435 -93.370321 223 38550ft 415kts
26-Dec-16 04:31 54.434015 -93.498149 223 38839ft 415kts
26-Dec-16 04:32 54.355825 -93.626538 223 39098ft 413kts
26-Dec-16 04:33 54.280090 -93.750217 222 39407ft 409kts
26-Dec-16 04:34 54.203936 -93.873917 223 39516ft 408kts
26-Dec-16 04:35 54.127555 -93.997322 223 39738ft 403kts
26-Dec-16 04:36 54.051028 -94.120309 223 39762ft 402kts
26-Dec-16 04:37 53.975274 -94.241410 222 39853ft 398kts
26-Dec-16 04:38 53.900011 -94.361098 223 39808ft 397kts
26-Dec-16 04:39 53.826412 -94.477540 223 39806ft 396kts
26-Dec-16 04:40 53.751251 -94.595854 223 38480ft 395kts
26-Dec-16 04:41 53.678283 -94.710138 222 38034ft 389kts
26-Dec-16 04:42 53.605211 -94.824030 222 38031ft 396kts
26-Dec-16 04:43 53.529608 -94.941248 222 38027ft 400kts
26-Dec-16 04:44 53.452882 -95.059607 223 38025ft 401kts
26-Dec-16 04:45 53.376990 -95.176107 223 38024ft 401kts
26-Dec-16 04:46 53.300288 -95.293243 222 38024ft 401kts
26-Dec-16 04:47 53.222918 -95.410799 223 38023ft 401kts
26-Dec-16 04:48 53.146108 -95.526903 223 38014ft 396kts
26-Dec-16 04:49 53.069937 -95.641571 220 37997ft 394kts
26-Dec-16 04:50 52.993265 -95.756247 218 37965ft 400kts
26-Dec-16 04:51 52.912887 -95.875867 218 37076ft 423kts
26-Dec-16 04:52 52.831626 -95.996234 218 37166ft 440kts
26-Dec-16 04:53 52.744600 -96.124439 218 37261ft 458kts
26-Dec-16 04:54 52.653986 -96.257198 219 37886ft 461kts
26-Dec-16 04:55 52.578234 -96.367579 218 38420ft 461kts
26-Dec-16 04:56 52.492177 -96.492329 218 38866ft 461kts
26-Dec-16 04:57 52.402614 -96.621453 218 39243ft 461kts
26-Dec-16 04:58 52.313168 -96.749617 218 39523ft 461kts
26-Dec-16 04:59 52.223461 -96.877334 218 39731ft 460kts
26-Dec-16 05:00 52.133551 -97.004610 218 39922ft 459kts
26-Dec-16 05:01 52.044992 -97.129284 219 39886ft 452kts
26-Dec-16 05:02 51.956860 -97.252702 219 39916ft 449kts
26-Dec-16 05:03 51.871079 -97.372186 219 39671ft 457kts
26-Dec-16 05:04 51.780841 -97.497206 219 39523ft 457kts
26-Dec-16 05:05 51.691630 -97.620127 219 39525ft 454kts
26-Dec-16 05:06 51.603015 -97.741584 218 39528ft 450kts
26-Dec-16 05:07 51.513965 -97.862982 218 39289ft 458kts
26-Dec-16 05:08 51.421694 -97.988095 218 38306ft 468kts
26-Dec-16 05:09 51.330209 -98.111480 218 37460ft 451kts
26-Dec-16 05:10 51.240102 -98.232331 218 37578ft 456kts
26-Dec-16 05:11 51.150866 -98.351398 218 37674ft 459kts
26-Dec-16 05:12 51.059498 -98.472669 218 37625ft 466kts
26-Dec-16 05:13 50.967056 -98.594723 218 37712ft 469kts
26-Dec-16 05:14 50.884932 -98.702549 219 37789ft 470kts
26-Dec-16 05:15 50.790709 -98.825720 219 37815ft 473kts
26-Dec-16 05:16 50.703074 -98.939659 218 37805ft 476kts
26-Dec-16 05:17 50.617754 -99.050039 218 37717ft 481kts
26-Dec-16 05:18 50.520533 -99.175169 218 37670ft 486kts
26-Dec-16 05:19 50.426025 -99.296158 218 37667ft 467kts
26-Dec-16 05:20 50.332185 -99.415632 218 37651ft 466kts
26-Dec-16 05:21 50.239996 -99.532407 219 37642ft 466kts
26-Dec-16 05:22 50.147089 -99.649490 218 37658ft 466kts
26-Dec-16 05:23 50.055291 -99.764581 218 37653ft 466kts
26-Dec-16 05:24 49.961999 -99.880952 218 37646ft 466kts
26-Dec-16 05:25 49.885203 -100.005855 238 37657ft 465kts
26-Dec-16 05:26 49.822708 -100.160100 238 37652ft 465kts
26-Dec-16 05:27 49.758608 -100.316673 238 37649ft 465kts
26-Dec-16 05:28 49.704828 -100.447300 238 37653ft 465kts
26-Dec-16 05:28 49.650623 -100.578308 238 37647ft 467kts
26-Dec-16 05:29 49.588472 -100.727723 238 37653ft 475kts
26-Dec-16 05:31 49.521604 -100.887515 238 37662ft 482kts
26-Dec-16 05:32 49.455012 -101.045760 238 37706ft 477kts
26-Dec-16 05:33 49.388369 -101.203154 238 37703ft 475kts
26-Dec-16 05:34 49.321755 -101.359563 238 37699ft 473kts
26-Dec-16 05:35 49.255007 -101.515368 238 37706ft 473kts
26-Dec-16 05:36 49.188581 -101.669532 238 38265ft 473kts
26-Dec-16 05:37 49.162089 -101.730771 237 38496ft 473kts
26-Dec-16 05:38 49.121758 -101.823700 237 38853ft 472kts
26-Dec-16 05:39 49.055267 -101.976218 238 39036ft 478kts
26-Dec-16 05:40 48.983870 -102.139045 239 38742ft 480kts
26-Dec-16 05:41 48.909957 -102.306591 239 38256ft 483kts
26-Dec-16 05:42 48.837445 -102.469950 239 38039ft 482kts
26-Dec-16 05:43 48.762614 -102.637484 239 38043ft 481kts
26-Dec-16 05:44 48.689636 -102.799883 238 38044ft 481kts
26-Dec-16 05:45 48.614221 -102.966671 238 38040ft 481kts
26-Dec-16 05:46 48.542125 -103.125176 238 38017ft 470kts
26-Dec-16 05:47 48.473241 -103.275757 237 37952ft 466kts
26-Dec-16 05:48 48.405461 -103.423077 237 37955ft 466kts
26-Dec-16 05:49 48.336551 -103.572053 237 37952ft 465kts
26-Dec-16 05:50 48.271116 -103.712459 234 37950ft 466kts
26-Dec-16 05:51 48.185377 -103.833313 221 37955ft 469kts
26-Dec-16 05:52 48.093348 -103.947280 221 37956ft 470kts
26-Dec-16 05:53 48.005091 -104.055138 220 37971ft 470kts
26-Dec-16 05:54 47.922700 -104.155308 220 38016ft 469kts
26-Dec-16 05:55 47.844525 -104.249941 221 38289ft 471kts
26-Dec-16 05:56 47.756841 -104.355634 220 38664ft 470kts
26-Dec-16 05:57 47.668273 -104.461920 220 38922ft 470kts
26-Dec-16 05:58 47.579117 -104.568427 221 39168ft 470kts
26-Dec-16 05:59 47.489977 -104.674437 220 39352ft 469kts
26-Dec-16 06:00 47.395458 -104.786323 220 39469ft 469kts
26-Dec-16 06:01 47.300206 -104.898551 220 39578ft 469kts
26-Dec-16 06:02 47.206377 -105.008566 220 39946ft 458kts
26-Dec-16 06:03 47.121275 -105.107932 220 39944ft 448kts
26-Dec-16 06:04 47.065451 -105.172911 218 39990ft 447kts
26-Dec-16 06:05 46.971048 -105.282300 218 39579ft 460kts
26-Dec-16 06:06 46.876523 -105.391353 218 38974ft 466kts
26-Dec-16 06:07 46.778028 -105.504448 218 38035ft 465kts
26-Dec-16 06:08 46.679413 -105.617146 218 38000ft 467kts
26-Dec-16 06:09 46.583801 -105.725903 217 38000ft 467kts
26-Dec-16 06:10 46.482605 -105.840476 217 38000ft 467kts
26-Dec-16 06:11 46.380132 -105.956229 220 37998ft 467kts
26-Dec-16 06:12 46.313415 -106.112317 257 38001ft 464kts
26-Dec-16 06:13 46.325400 -106.290838 295 37999ft 457kts
26-Dec-16 06:14 46.408151 -106.419716 332 38007ft 460kts
26-Dec-16 06:15 46.527702 -106.451074 8 38007ft 460kts
26-Dec-16 06:16 46.634763 -106.374013 45 38007ft 460kts
26-Dec-16 06:17 46.715542 -106.242936 48 38000ft 460kts
26-Dec-16 06:18 46.788036 -106.102211 66 38012ft 472kts
26-Dec-16 06:19 46.799553 -105.917605 103 38006ft 472kts
26-Dec-16 06:20 46.732838 -105.758782 140 38006ft 472kts
26-Dec-16 06:21 46.614293 -105.690025 176 38006ft 472kts
26-Dec-16 06:22 46.493110 -105.736098 212 38006ft 472kts
26-Dec-16 06:23 46.410691 -105.878756 241 38011ft 473kts
26-Dec-16 06:24 46.356869 -106.050708 259 38004ft 472kts
26-Dec-16 06:25 46.373804 -106.234602 296 38006ft 472kts
26-Dec-16 06:26 46.461697 -106.366334 332 38006ft 472kts
26-Dec-16 06:27 46.584734 -106.397493 8 38006ft 472kts
26-Dec-16 06:28 46.694500 -106.321098 43 38006ft 472kts
26-Dec-16 06:29 46.776943 -106.188186 48 38000ft 472kts
26-Dec-16 06:30 46.853263 -106.043200 65 38003ft 472kts
26-Dec-16 06:31 46.871057 -105.901641 94 38006ft 472kts
26-Dec-16 06:32 46.828714 -105.738866 129 38038ft 473kts
26-Dec-16 06:33 46.730327 -105.639136 165 38038ft 467kts
26-Dec-16 06:33 46.630551 -105.632522 194 38044ft 460kts
26-Dec-16 06:35 46.517450 -105.737574 230 38044ft 453kts
26-Dec-16 06:36 46.439568 -105.865905 229 38033ft 455kts
26-Dec-16 06:36 46.371056 -105.969069 221 38022ft 457kts
26-Dec-16 06:38 46.264270 -106.093877 220 38025ft 458kts
26-Dec-16 06:38 46.188422 -106.183419 220 38026ft 458kts
26-Dec-16 06:39 46.098103 -106.289749 220 38023ft 458kts
26-Dec-16 06:41 46.006431 -106.397248 220 38021ft 459kts
26-Dec-16 06:42 45.913807 -106.505368 220 38026ft 458kts
26-Dec-16 06:43 45.836057 -106.595759 220 38023ft 457kts
26-Dec-16 06:44 45.748411 -106.697251 220 38023ft 458kts
26-Dec-16 06:45 45.649916 -106.810818 220 38022ft 458kts
26-Dec-16 06:46 45.550994 -106.924329 219 38019ft 456kts
26-Dec-16 06:47 45.452707 -107.036604 219 38018ft 452kts
26-Dec-16 06:48 45.354819 -107.147887 219 38017ft 452kts
26-Dec-16 06:49 45.256627 -107.259026 219 38013ft 452kts
26-Dec-16 06:50 45.158657 -107.369408 219 38011ft 452kts
26-Dec-16 06:51 45.061371 -107.478507 219 38013ft 453kts
26-Dec-16 06:52 44.962647 -107.588740 220 38034ft 455kts
26-Dec-16 06:53 44.873664 -107.687685 219 38074ft 456kts
26-Dec-16 06:54 44.780735 -107.790579 219 38101ft 456kts
26-Dec-16 06:55 44.681388 -107.900094 219 38099ft 456kts
26-Dec-16 06:56 44.582221 -108.008930 219 38102ft 457kts
26-Dec-16 06:57 44.483145 -108.117180 219 38100ft 457kts
26-Dec-16 06:58 44.383790 -108.225257 219 38100ft 456kts
26-Dec-16 06:59 44.285149 -108.332084 219 38100ft 456kts
26-Dec-16 07:00 44.186693 -108.438249 219 38842ft 452kts
26-Dec-16 07:01 44.090560 -108.541467 219 39255ft 451kts
26-Dec-16 07:02 43.995929 -108.642638 220 39590ft 453kts
26-Dec-16 07:03 43.905213 -108.739244 219 39956ft 453kts
26-Dec-16 07:04 43.811902 -108.838218 219 40025ft 452kts
26-Dec-16 07:05 43.766993 -108.885709 219 40034ft 453kts
26-Dec-16 07:06 43.670052 -108.987895 219 40053ft 453kts
26-Dec-16 07:07 43.573810 -109.088922 221 40052ft 457kts
26-Dec-16 07:08 43.474125 -109.193150 221 40045ft 460kts
26-Dec-16 07:09 43.372192 -109.299292 221 40065ft 469kts
26-Dec-16 07:10 43.267427 -109.407884 221 40065ft 480kts
26-Dec-16 07:11 43.162565 -109.516064 221 40070ft 470kts
26-Dec-16 07:12 43.058261 -109.623232 221 40137ft 471kts
26-Dec-16 07:13 42.958236 -109.725547 221 40322ft 472kts
26-Dec-16 07:14 42.859872 -109.825751 221 40860ft 468kts
26-Dec-16 07:15 42.756137 -109.931006 221 41129ft 468kts
26-Dec-16 07:16 42.652363 -110.035838 221 41331ft 468kts
26-Dec-16 07:17 42.549915 -110.142121 224 41487ft 465kts
26-Dec-16 07:18 42.450466 -110.253624 224 41493ft 467kts
26-Dec-16 07:19 42.352994 -110.362208 224 40171ft 456kts
26-Dec-16 07:20 42.256337 -110.469496 224 40179ft 464kts
26-Dec-16 07:21 42.162642 -110.573040 224 40213ft 470kts
26-Dec-16 07:22 42.072598 -110.672121 223 40206ft 461kts
26-Dec-16 07:23 41.977602 -110.776319 223 40214ft 467kts
26-Dec-16 07:24 41.883430 -110.879176 223 40184ft 470kts
26-Dec-16 07:25 41.838364 -110.928247 223 40178ft 470kts
26-Dec-16 07:26 41.727579 -111.048508 224 40177ft 470kts
26-Dec-16 07:27 41.584080 -111.203473 224 40180ft 472kts
26-Dec-16 07:28 41.483201 -111.311863 224 40179ft 471kts
26-Dec-16 07:29 41.385343 -111.416584 224 40201ft 471kts
26-Dec-16 07:30 41.287267 -111.521121 224 40261ft 471kts
26-Dec-16 07:31 41.191842 -111.622435 224 40319ft 471kts
26-Dec-16 07:32 41.096523 -111.723239 223 40328ft 471kts
26-Dec-16 07:33 40.998847 -111.826121 224 40323ft 459kts
26-Dec-16 07:34 40.896582 -111.932079 218 40315ft 457kts
26-Dec-16 07:35 40.759860 -111.974678 182 40336ft 486kts
26-Dec-16 07:36 40.600974 -111.963883 182 40331ft 487kts
26-Dec-16 07:37 40.445264 -111.952732 182 40346ft 488kts
26-Dec-16 07:38 40.307068 -111.944574 189 40329ft 483kts
26-Dec-16 07:39 40.162123 -112.006290 209 40340ft 465kts
26-Dec-16 07:40 40.007519 -112.094318 209 40339ft 465kts
26-Dec-16 07:41 39.870276 -112.172686 209 40333ft 465kts
26-Dec-16 07:42 39.708363 -112.264736 209 40335ft 465kts
26-Dec-16 07:43 39.550504 -112.354028 209 40333ft 464kts
26-Dec-16 07:44 39.440273 -112.416120 209 40337ft 465kts
26-Dec-16 07:45 39.330357 -112.477813 209 40331ft 465kts
26-Dec-16 07:46 39.219381 -112.539892 209 40332ft 465kts
26-Dec-16 07:47 39.079956 -112.617581 209 40334ft 465kts
26-Dec-16 07:48 38.913009 -112.710148 208 40330ft 451kts
26-Dec-16 07:49 38.809945 -112.767072 207 40311ft 443kts
26-Dec-16 07:50 38.697802 -112.828819 207 40311ft 442kts
26-Dec-16 07:50 38.604108 -112.880227 207 40315ft 441kts
26-Dec-16 07:51 38.491621 -112.941750 207 40307ft 440kts
26-Dec-16 07:53 38.361292 -113.012871 208 40309ft 439kts
26-Dec-16 07:53 38.286397 -113.094462 239 40315ft 429kts
26-Dec-16 07:54 38.261763 -113.239767 277 40315ft 431kts
26-Dec-16 07:55 38.318332 -113.373092 314 40314ft 446kts
26-Dec-16 07:56 38.433181 -113.433865 352 40314ft 468kts
26-Dec-16 07:57 38.559573 -113.392105 24 40319ft 485kts
26-Dec-16 07:59 38.680423 -113.315746 23 40309ft 486kts
26-Dec-16 08:00 38.793246 -113.223460 45 40314ft 493kts
26-Dec-16 08:01 38.850202 -113.067215 83 40318ft 497kts
26-Dec-16 08:02 38.826595 -112.897215 121 40312ft 488kts
26-Dec-16 08:03 38.734232 -112.781857 160 40343ft 464kts
26-Dec-16 08:04 38.612956 -112.763262 198 40338ft 433kts
26-Dec-16 08:05 38.516058 -112.841779 228 40341ft 416kts
26-Dec-16 08:06 38.431043 -112.943374 223 40329ft 424kts
26-Dec-16 08:07 38.336007 -113.033726 214 40334ft 433kts
26-Dec-16 08:08 38.233698 -113.116069 215 40333ft 439kts
26-Dec-16 08:09 38.130442 -113.199430 215 40311ft 442kts
26-Dec-16 08:10 38.026724 -113.282927 215 40281ft 443kts
26-Dec-16 08:11 37.923103 -113.366074 215 40280ft 443kts
26-Dec-16 08:12 37.834910 -113.436612 215 40280ft 442kts
26-Dec-16 08:13 37.731033 -113.519444 215 40279ft 442kts
26-Dec-16 08:14 37.627309 -113.601872 215 40304ft 442kts
26-Dec-16 08:15 37.534626 -113.675297 214 40372ft 442kts
26-Dec-16 08:16 37.436745 -113.752609 214 40401ft 443kts
26-Dec-16 08:17 37.332779 -113.834446 214 40401ft 443kts
26-Dec-16 08:18 37.228720 -113.916093 214 40397ft 442kts
26-Dec-16 08:19 37.124589 -113.997529 214 40402ft 443kts
26-Dec-16 08:20 37.022433 -114.077100 216 40399ft 427kts
26-Dec-16 08:21 36.923483 -114.154008 217 40396ft 417kts
26-Dec-16 08:22 36.849535 -114.211351 217 40402ft 417kts
26-Dec-16 08:23 36.751480 -114.287144 217 40393ft 417kts
26-Dec-16 08:24 36.652937 -114.363073 217 40377ft 417kts
26-Dec-16 08:25 36.554749 -114.438500 217 40360ft 417kts
26-Dec-16 08:26 36.456096 -114.514056 217 40349ft 416kts
26-Dec-16 08:27 36.357609 -114.589257 217 40355ft 417kts
26-Dec-16 08:28 36.266446 -114.658662 217 40361ft 416kts
26-Dec-16 08:29 36.174723 -114.728299 217 40372ft 418kts
26-Dec-16 08:30 36.075710 -114.803254 217 39738ft 417kts
26-Dec-16 08:31 35.981293 -114.884313 231 38769ft 408kts
26-Dec-16 08:32 35.905006 -114.987560 231 37876ft 408kts
26-Dec-16 08:33 35.836858 -115.080103 230 37153ft 412kts
26-Dec-16 08:34 35.759234 -115.185299 230 36400ft 417kts
26-Dec-16 08:35 35.681169 -115.290751 230 35607ft 418kts
26-Dec-16 08:36 35.602519 -115.396682 230 34757ft 419kts
26-Dec-16 08:37 35.523714 -115.502501 230 33658ft 423kts
26-Dec-16 08:38 35.444535 -115.608484 230 32543ft 424kts
26-Dec-16 08:39 35.394530 -115.675226 229 31831ft 420kts
26-Dec-16 08:40 35.322232 -115.771534 229 30895ft 432kts
26-Dec-16 08:41 35.241115 -115.879249 229 29811ft 437kts
26-Dec-16 08:42 35.159046 -115.987862 229 28719ft 432kts
26-Dec-16 08:43 35.076391 -116.096937 229 27647ft 446kts
26-Dec-16 08:44 34.992312 -116.207524 229 26540ft 445kts
26-Dec-16 08:45 34.908735 -116.317091 228 25440ft 446kts
26-Dec-16 08:46 34.848089 -116.396352 227 24637ft 442kts
26-Dec-16 08:47 34.760686 -116.496668 219 24331ft 440kts
26-Dec-16 08:48 34.665999 -116.586579 219 24286ft 440kts
26-Dec-16 08:49 34.587377 -116.660624 219 23383ft 434kts
26-Dec-16 08:50 34.514792 -116.728784 219 22543ft 430kts
26-Dec-16 08:51 34.425146 -116.812741 218 21398ft 424kts
26-Dec-16 08:52 34.337842 -116.894280 218 20265ft 419kts
26-Dec-16 08:53 34.247861 -116.978102 218 19079ft 413kts
26-Dec-16 08:54 34.158500 -117.061106 217 17997ft 405kts
26-Dec-16 08:55 34.086543 -117.158960 238 18011ft 411kts
26-Dec-16 08:56 34.048113 -117.264292 256 17629ft 344kts
26-Dec-16 08:57 34.037972 -117.356615 259 14604ft 327kts
26-Dec-16 08:58 34.028328 -117.457459 260 12112ft 318kts
26-Dec-16 08:59 34.018828 -117.557705 260 10751ft 317kts
26-Dec-16 09:00 34.009874 -117.651748 259 9934ft 276kts
26-Dec-16 09:01 34.001631 -117.736856 259 9532ft 273kts
26-Dec-16 09:01 33.994273 -117.812209 260 8602ft 277kts
26-Dec-16 09:02 33.985767 -117.899495 260 7418ft 275kts
26-Dec-16 09:03 33.977417 -117.984785 260 6399ft 241kts
26-Dec-16 09:04 33.969584 -118.063721 261 5214ft 240kts
26-Dec-16 09:06 33.961812 -118.141601 262 4106ft 235kts
26-Dec-16 09:07 33.954795 -118.211330 264 2911ft 184kts
26-Dec-16 09:08 33.948855 -118.270374 264 2060ft 169kts
26-Dec-16 09:09 33.943696 -118.321011 261 1035ft 129kts
26-Dec-16 09:10 33.939052 -118.366259 262 425ft 146kts
26-Dec-16 09:11 33.935291 -118.403622 263 114ft 50kts
26-Dec-16 09:12 33.935279 -118.411460 290 114ft 11kts
26-Dec-16 09:13 33.937695 -118.411350 61 114ft 8kts
26-Dec-16 09:14 33.940117 -118.411420 77 114ft 4kts
26-Dec-16 09:15 33.940218 -118.410652 81 114ft 0kts
26-Dec-16 09:16 33.940218 -118.410652 81 114ft 0kts
26-Dec-16 09:17 33.940218 -118.410652 81 114ft 0kts
26-Dec-16 09:18 33.940218 -118.410652 81 114ft 0kts
26-Dec-16 09:19 33.940218 -118.410652 81 114ft 0kts
26-Dec-16 09:20 33.940218 -118.410652 81 114ft 0kts
26-Dec-16 09:21 33.940218 -118.410652 81 114ft 0kts
26-Dec-16 09:22 33.940218 -118.410652 81 114ft 0kts

Navigation Log

Ident Type
Flight plan parsing failed, navigation log unavailable